createdAt,value
2023-03-10T00:01:30.782Z,1.80
2023-03-10T00:04:01.046Z,2.20
2023-03-10T00:06:34.623Z,1.87
2023-03-10T00:09:02.516Z,2.00
2023-03-10T00:11:29.520Z,2.27
2023-03-10T00:13:56.501Z,1.70
2023-03-10T00:16:29.695Z,2.73
2023-03-10T00:18:58.071Z,1.63
2023-03-10T00:21:32.368Z,1.80
2023-03-10T00:24:01.324Z,2.30
2023-03-10T00:26:29.971Z,1.70
2023-03-10T00:28:56.921Z,3.00
2023-03-10T00:31:27.857Z,3.63
2023-03-10T00:33:57.506Z,3.30
2023-03-10T00:36:29.177Z,2.13
2023-03-10T00:39:00.685Z,2.37
2023-03-10T00:41:33.276Z,3.33
2023-03-10T00:44:01.054Z,2.40
2023-03-10T00:46:29.867Z,1.80
2023-03-10T00:48:56.839Z,2.37
2023-03-10T00:51:24.026Z,2.80
2023-03-10T00:53:51.243Z,2.13
2023-03-10T00:56:23.725Z,2.43
2023-03-10T00:58:55.181Z,2.70
2023-03-10T01:01:37.580Z,2.83
2023-03-10T01:04:19.110Z,2.77
2023-03-10T01:06:47.507Z,2.27
2023-03-10T01:09:15.677Z,2.17
2023-03-10T01:11:42.987Z,2.37
2023-03-10T01:14:15.042Z,1.47
2023-03-10T01:16:42.374Z,2.13
2023-03-10T01:19:09.435Z,1.97
2023-03-10T01:21:39.268Z,1.83
2023-03-10T01:24:08.067Z,1.90
2023-03-10T01:26:35.408Z,2.20
2023-03-10T01:29:02.322Z,1.23
2023-03-10T01:31:29.278Z,1.67
2023-03-10T01:33:56.143Z,2.30
2023-03-10T01:36:26.958Z,1.53
2023-03-10T01:38:57.128Z,1.57
2023-03-10T01:41:24.773Z,1.60
2023-03-10T01:43:56.218Z,2.00
2023-03-10T01:46:39.879Z,2.00
2023-03-10T01:49:24.942Z,2.00
2023-03-10T01:52:08.622Z,1.80
2023-03-10T01:55:00.796Z,2.57
2023-03-10T01:57:40.102Z,2.13
2023-03-10T02:00:12.500Z,2.37
2023-03-10T02:03:15.838Z,2.17
2023-03-10T02:06:00.736Z,3.13
2023-03-10T02:08:38.000Z,2.60
2023-03-10T02:11:05.574Z,2.17
2023-03-10T02:13:32.515Z,1.97
2023-03-10T02:15:59.770Z,2.23
2023-03-10T02:18:30.341Z,2.10
2023-03-10T02:21:34.152Z,2.07
2023-03-10T02:24:24.850Z,2.30
2023-03-10T02:27:26.937Z,1.90
2023-03-10T02:30:17.584Z,2.37
2023-03-10T02:32:53.145Z,1.70
2023-03-10T02:35:20.831Z,2.00
2023-03-10T02:37:50.645Z,2.10
2023-03-10T02:40:48.187Z,1.73
2023-03-10T02:43:28.647Z,2.17
2023-03-10T02:46:07.454Z,1.97
2023-03-10T02:48:39.552Z,1.83
2023-03-10T02:51:16.107Z,1.63
2023-03-10T02:53:43.380Z,1.80
2023-03-10T02:56:10.483Z,1.97
2023-03-10T02:58:37.799Z,1.97
2023-03-10T03:01:05.819Z,2.50
2023-03-10T03:03:33.609Z,1.93
2023-03-10T03:06:00.825Z,2.57
2023-03-10T03:08:29.011Z,2.60
2023-03-10T03:10:57.326Z,2.50
2023-03-10T03:13:24.220Z,2.13
2023-03-10T03:15:51.670Z,2.20
2023-03-10T03:18:18.591Z,2.10
2023-03-10T03:20:45.671Z,2.80
2023-03-10T03:23:13.495Z,2.80
2023-03-10T03:25:42.627Z,2.70
2023-03-10T03:28:13.747Z,2.50
2023-03-10T03:30:41.480Z,2.17
2023-03-10T03:33:08.988Z,2.17
2023-03-10T03:35:37.992Z,2.33
2023-03-10T03:38:06.515Z,2.50
2023-03-10T03:40:37.006Z,2.00
2023-03-10T03:43:04.916Z,2.40
2023-03-10T03:45:32.780Z,2.47
2023-03-10T03:48:00.073Z,2.20
2023-03-10T03:50:28.385Z,2.03
2023-03-10T03:52:55.499Z,1.93
2023-03-10T03:55:22.633Z,2.00
2023-03-10T03:57:49.886Z,1.70
2023-03-10T04:00:24.461Z,2.20
2023-03-10T04:02:51.741Z,2.17
2023-03-10T04:05:19.390Z,1.90
2023-03-10T04:07:48.169Z,1.50
2023-03-10T04:10:23.554Z,2.20
2023-03-10T04:12:50.453Z,1.90
2023-03-10T04:15:17.425Z,1.93
2023-03-10T04:17:44.549Z,1.70
2023-03-10T04:20:15.578Z,2.27
2023-03-10T04:22:42.651Z,2.07
2023-03-10T04:25:11.229Z,1.90
2023-03-10T04:27:38.131Z,1.83
2023-03-10T04:30:07.118Z,1.93
2023-03-10T04:32:34.196Z,1.60
2023-03-10T04:35:01.763Z,2.00
2023-03-10T04:37:28.704Z,1.73
2023-03-10T04:39:56.985Z,1.80
2023-03-10T04:42:26.565Z,1.50
2023-03-10T04:44:53.577Z,1.30
2023-03-10T04:47:20.468Z,1.60
2023-03-10T04:49:47.329Z,1.73
2023-03-10T04:52:14.344Z,1.70
2023-03-10T04:54:41.453Z,1.73
2023-03-10T04:57:08.376Z,1.30
2023-03-10T04:59:35.710Z,1.70
2023-03-10T05:02:02.629Z,1.90
2023-03-10T05:04:29.634Z,1.40
2023-03-10T05:06:56.539Z,2.00
2023-03-10T05:09:23.559Z,2.10
2023-03-10T05:11:50.577Z,1.60
2023-03-10T05:14:17.631Z,1.60
2023-03-10T05:16:47.837Z,2.30
2023-03-10T05:19:14.822Z,1.80
2023-03-10T05:21:41.824Z,2.60
2023-03-10T05:24:08.861Z,1.27
2023-03-10T05:26:35.792Z,1.57
2023-03-10T05:29:02.984Z,1.90
2023-03-10T05:31:29.938Z,2.17
2023-03-10T05:33:57.229Z,1.57
2023-03-10T05:36:24.501Z,1.47
2023-03-10T05:38:51.407Z,1.50
2023-03-10T05:41:19.177Z,1.83
2023-03-10T05:43:46.063Z,1.40
2023-03-10T05:46:13.433Z,1.20
2023-03-10T05:48:40.346Z,1.43
2023-03-10T05:51:13.006Z,1.67
2023-03-10T05:53:41.765Z,1.30
2023-03-10T05:56:17.721Z,1.60
2023-03-10T05:58:47.003Z,1.50
2023-03-10T06:01:14.936Z,1.20
2023-03-10T06:03:42.083Z,1.80
2023-03-10T06:06:09.066Z,1.20
2023-03-10T06:08:36.096Z,1.50
2023-03-10T06:11:05.051Z,1.70
2023-03-10T06:13:32.719Z,1.43
2023-03-10T06:16:05.071Z,1.50
2023-03-10T06:18:33.591Z,1.30
2023-03-10T06:21:04.841Z,1.73
2023-03-10T06:23:31.799Z,1.50
2023-03-10T06:26:12.645Z,1.50
2023-03-10T06:28:43.518Z,1.10
2023-03-10T06:31:24.489Z,1.70
2023-03-10T06:33:52.039Z,1.37
2023-03-10T06:36:21.377Z,0.97
2023-03-10T06:38:49.522Z,1.20
2023-03-10T06:41:17.515Z,1.27
2023-03-10T06:43:44.901Z,1.50
2023-03-10T06:46:13.244Z,0.90
2023-03-10T06:48:42.692Z,1.07
2023-03-10T06:51:17.092Z,1.03
2023-03-10T06:53:44.338Z,0.97
2023-03-10T06:56:16.670Z,1.10
2023-03-10T06:58:44.863Z,1.20
2023-03-10T07:01:29.202Z,1.00
2023-03-10T07:03:58.144Z,1.43
2023-03-10T07:06:25.919Z,1.33
2023-03-10T07:08:54.446Z,1.10
2023-03-10T07:11:25.075Z,0.80
2023-03-10T07:13:52.141Z,1.10
2023-03-10T07:16:19.428Z,1.20
2023-03-10T07:18:46.634Z,1.10
2023-03-10T07:21:19.559Z,1.17
2023-03-10T07:23:47.269Z,1.00
2023-03-10T07:26:18.388Z,1.10
2023-03-10T07:28:45.940Z,1.10
2023-03-10T07:31:14.991Z,1.00
2023-03-10T07:33:42.111Z,1.03
2023-03-10T07:36:14.412Z,1.37
2023-03-10T07:38:41.867Z,1.40
2023-03-10T07:41:18.541Z,1.13
2023-03-10T07:43:45.758Z,1.70
2023-03-10T07:46:15.005Z,0.93
2023-03-10T07:48:42.933Z,1.20
2023-03-10T07:51:12.312Z,1.50
2023-03-10T07:53:39.524Z,1.73
2023-03-10T07:56:13.773Z,1.37
2023-03-10T07:58:41.558Z,1.07
2023-03-10T08:01:16.827Z,1.20
2023-03-10T08:03:44.310Z,1.10
2023-03-10T08:06:24.111Z,1.23
2023-03-10T08:08:52.037Z,0.90
2023-03-10T08:11:20.455Z,0.90
2023-03-10T08:13:48.514Z,1.00
2023-03-10T08:16:20.901Z,0.90
2023-03-10T08:18:52.099Z,0.97
2023-03-10T08:21:19.430Z,1.20
2023-03-10T08:23:46.580Z,1.40
2023-03-10T08:26:18.011Z,1.03
2023-03-10T08:28:45.742Z,1.17
2023-03-10T08:31:18.685Z,0.90
2023-03-10T08:33:46.991Z,1.33
2023-03-10T08:36:25.227Z,1.10
2023-03-10T08:38:55.274Z,1.20
2023-03-10T08:41:25.999Z,1.17
2023-03-10T08:43:56.816Z,0.83
2023-03-10T08:46:28.139Z,1.23
2023-03-10T08:48:56.305Z,1.20
2023-03-10T08:51:24.637Z,1.40
2023-03-10T08:53:52.652Z,1.03
2023-03-10T08:56:22.760Z,1.23
2023-03-10T08:58:50.158Z,1.20
2023-03-10T09:04:10.329Z,1.43
2023-03-10T09:06:38.376Z,2.20
2023-03-10T09:09:08.338Z,2.67
2023-03-10T09:11:40.162Z,1.00
2023-03-10T09:14:10.770Z,1.20
2023-03-10T09:16:40.070Z,1.20
2023-03-10T09:19:08.097Z,1.20
2023-03-10T09:21:35.409Z,1.00
2023-03-10T09:24:03.123Z,1.50
2023-03-10T09:26:30.846Z,1.10
2023-03-10T09:28:57.754Z,1.00
2023-03-10T09:31:37.087Z,1.10
2023-03-10T09:34:06.291Z,1.20
2023-03-10T09:36:33.728Z,1.10
2023-03-10T09:39:01.285Z,0.93
2023-03-10T09:42:10.958Z,1.20
2023-03-10T09:45:51.248Z,1.07
2023-03-10T09:49:04.788Z,2.30
2023-03-10T09:51:31.728Z,0.90
2023-03-10T09:54:57.480Z,1.33
2023-03-10T09:57:25.328Z,1.30
2023-03-10T10:00:01.394Z,1.23
2023-03-10T10:02:41.570Z,1.57
2023-03-10T10:05:25.244Z,1.00
2023-03-10T10:08:12.450Z,1.83
2023-03-10T10:10:42.110Z,1.67
2023-03-10T10:13:15.807Z,1.17
2023-03-10T10:16:07.304Z,1.10
2023-03-10T10:18:51.907Z,0.80
2023-03-10T10:21:41.768Z,1.13
2023-03-10T10:24:10.093Z,1.80
2023-03-10T10:26:36.955Z,1.40
2023-03-10T10:29:22.100Z,1.30
2023-03-10T10:32:12.913Z,1.10
2023-03-10T10:34:46.591Z,1.00
2023-03-10T10:37:39.475Z,1.00
2023-03-10T10:40:26.257Z,1.37
2023-03-10T10:43:00.656Z,2.20
2023-03-10T10:45:39.174Z,1.10
2023-03-10T10:48:06.920Z,0.80
2023-03-10T10:50:37.177Z,0.90
2023-03-10T10:53:26.608Z,1.33
2023-03-10T10:56:14.084Z,1.00
2023-03-10T10:59:00.109Z,1.00
2023-03-10T11:01:27.285Z,0.83
2023-03-10T11:04:08.111Z,1.50
2023-03-10T11:06:37.869Z,1.37
2023-03-10T11:09:18.067Z,2.03
2023-03-10T11:12:24.204Z,1.20
2023-03-10T11:15:27.528Z,1.57
2023-03-10T11:18:13.300Z,1.57
2023-03-10T11:21:25.878Z,1.60
2023-03-10T11:24:14.943Z,1.50
2023-03-10T11:27:26.056Z,2.40
2023-03-10T11:30:19.778Z,1.10
2023-03-10T11:33:25.797Z,1.80
2023-03-10T11:36:04.772Z,2.03
2023-03-10T11:38:42.242Z,1.90
2023-03-10T11:41:21.402Z,2.33
2023-03-10T11:44:14.850Z,1.30
2023-03-10T11:47:18.623Z,1.00
2023-03-10T11:50:02.354Z,1.50
2023-03-10T11:52:32.978Z,1.67
2023-03-10T11:55:18.853Z,1.00
2023-03-10T11:57:56.866Z,0.90
2023-03-10T12:00:41.611Z,1.30
2023-03-10T12:04:10.880Z,1.70
2023-03-10T12:06:59.916Z,1.20
2023-03-10T12:09:43.851Z,0.90
2023-03-10T12:12:28.908Z,1.30
2023-03-10T12:15:02.329Z,1.93
2023-03-10T12:17:29.767Z,1.17
2023-03-10T12:20:26.634Z,1.10
2023-03-10T12:23:21.445Z,2.97
2023-03-10T12:25:49.581Z,1.50
2023-03-10T12:28:16.442Z,1.40
2023-03-10T12:30:56.578Z,2.40
2023-03-10T12:33:37.545Z,1.23
2023-03-10T12:36:31.791Z,1.50
2023-03-10T12:39:27.703Z,1.50
2023-03-10T12:42:01.689Z,2.20
2023-03-10T12:44:44.810Z,3.47
2023-03-10T12:47:30.487Z,1.90
2023-03-10T12:50:19.436Z,1.60
2023-03-10T12:53:12.161Z,1.10
2023-03-10T12:55:42.142Z,1.00
2023-03-10T12:58:23.498Z,1.70
2023-03-10T13:01:04.058Z,1.30
2023-03-10T13:03:53.112Z,1.43
2023-03-10T13:06:36.494Z,1.30
2023-03-10T13:09:38.347Z,1.10
2023-03-10T13:12:26.578Z,1.30
2023-03-10T13:14:59.894Z,1.13
2023-03-10T13:17:31.899Z,1.60
2023-03-10T13:20:15.018Z,1.50
2023-03-10T13:22:59.300Z,1.40
2023-03-10T13:25:26.963Z,1.43
2023-03-10T13:27:57.232Z,1.60
2023-03-10T13:30:27.802Z,1.00
2023-03-10T13:33:02.376Z,1.40
2023-03-10T13:35:39.062Z,1.33
2023-03-10T13:38:16.606Z,1.43
2023-03-10T13:41:02.161Z,1.47
2023-03-10T13:43:48.416Z,1.00
2023-03-10T13:46:27.774Z,1.40
2023-03-10T13:49:06.159Z,1.10
2023-03-10T13:51:37.784Z,1.23
2023-03-10T13:54:29.208Z,1.60
2023-03-10T13:57:25.325Z,1.20
2023-03-10T13:59:56.792Z,1.30
2023-03-10T14:02:41.396Z,1.60
2023-03-10T14:05:47.028Z,1.10
2023-03-10T14:08:30.835Z,1.10
2023-03-10T14:11:41.295Z,1.07
2023-03-10T14:14:12.516Z,1.20
2023-03-10T14:17:01.388Z,1.20
2023-03-10T14:19:43.643Z,1.37
2023-03-10T14:22:41.145Z,1.03
2023-03-10T14:25:14.489Z,2.60
2023-03-10T14:27:59.524Z,9.50
2023-03-10T14:30:31.852Z,3.07
2023-03-10T14:33:01.471Z,4.40
2023-03-10T14:35:30.103Z,1.70
2023-03-10T14:37:57.914Z,1.80
2023-03-10T14:40:26.020Z,1.10
2023-03-10T14:42:59.104Z,3.73
2023-03-10T14:45:40.813Z,2.80
2023-03-10T14:48:19.828Z,1.77
2023-03-10T14:50:48.811Z,2.57
2023-03-10T14:53:22.072Z,3.30
2023-03-10T14:55:54.259Z,3.80
2023-03-10T14:58:27.989Z,6.97
2023-03-10T15:00:55.403Z,4.43
2023-03-10T15:03:22.310Z,8.30
2023-03-10T15:05:49.596Z,8.30
2023-03-10T15:08:18.071Z,10.20
2023-03-10T15:10:50.931Z,8.60
2023-03-10T15:13:23.613Z,10.13
2023-03-10T15:15:51.492Z,7.87
2023-03-10T15:18:24.340Z,13.60
2023-03-10T15:20:51.355Z,2.43
2023-03-10T15:23:19.974Z,4.77
2023-03-10T15:25:47.773Z,3.57
2023-03-10T15:28:14.779Z,4.50
2023-03-10T15:30:42.134Z,2.53
2023-03-10T15:33:10.531Z,2.27
2023-03-10T15:35:39.305Z,1.10
2023-03-10T15:38:06.923Z,1.57
2023-03-10T15:40:36.079Z,2.37
2023-03-10T15:43:03.111Z,2.43
2023-03-10T15:45:32.217Z,2.03
2023-03-10T15:47:59.629Z,1.97
2023-03-10T15:50:27.589Z,1.20
2023-03-10T15:52:58.658Z,1.87
2023-03-10T15:55:27.968Z,1.20
2023-03-10T15:57:56.412Z,1.27
2023-03-10T16:00:26.528Z,1.70
2023-03-10T16:02:54.667Z,0.90
2023-03-10T16:05:22.438Z,1.13
2023-03-10T16:07:49.386Z,1.30
2023-03-10T16:10:20.702Z,0.90
2023-03-10T16:12:47.813Z,1.50
2023-03-10T16:15:18.058Z,0.90
2023-03-10T16:17:45.402Z,0.97
2023-03-10T16:20:13.703Z,1.20
2023-03-10T16:22:42.984Z,1.30
2023-03-10T16:25:17.788Z,0.80
2023-03-10T16:27:46.808Z,0.90
2023-03-10T16:30:17.317Z,0.90
2023-03-10T16:32:47.212Z,1.17
2023-03-10T16:35:15.473Z,0.70
2023-03-10T16:37:43.341Z,0.90
2023-03-10T16:40:11.438Z,0.90
2023-03-10T16:42:38.807Z,0.80
2023-03-10T16:45:07.590Z,0.80
2023-03-10T16:47:34.665Z,0.90
2023-03-10T16:50:01.518Z,1.23
2023-03-10T16:52:28.514Z,1.10
2023-03-10T16:55:01.318Z,1.20
2023-03-10T16:57:28.312Z,1.20
2023-03-10T16:59:55.245Z,1.30
2023-03-10T17:02:22.168Z,1.10
2023-03-10T17:04:49.101Z,1.00
2023-03-10T17:07:16.288Z,1.20
2023-03-10T17:09:43.256Z,1.07
2023-03-10T17:12:10.236Z,1.00
2023-03-10T17:14:37.185Z,1.10
2023-03-10T17:17:06.575Z,1.13
2023-03-10T17:19:34.705Z,1.53
2023-03-10T17:22:01.587Z,2.20
2023-03-10T17:24:29.125Z,1.30
2023-03-10T17:26:56.021Z,1.40
2023-03-10T17:29:22.953Z,1.70
2023-03-10T17:31:51.421Z,2.30
2023-03-10T17:34:19.850Z,1.57
2023-03-10T17:36:50.611Z,1.67
2023-03-10T17:39:22.268Z,1.70
2023-03-10T17:41:49.576Z,1.43
2023-03-10T17:44:17.361Z,1.40
2023-03-10T17:46:45.276Z,1.13
2023-03-10T17:49:15.347Z,1.30
2023-03-10T17:51:44.530Z,1.80
2023-03-10T17:54:22.761Z,1.50
2023-03-10T17:56:50.595Z,1.63
2023-03-10T17:59:18.612Z,1.60
2023-03-10T18:01:46.885Z,2.57
2023-03-10T18:04:14.003Z,1.57
2023-03-10T18:06:42.053Z,2.63
2023-03-10T18:09:14.867Z,2.20
2023-03-10T18:11:42.083Z,2.13
2023-03-10T18:14:09.131Z,2.00
2023-03-10T18:16:40.999Z,1.90
2023-03-10T18:19:11.145Z,1.80
2023-03-10T18:21:38.803Z,1.70
2023-03-10T18:24:06.486Z,1.87
2023-03-10T18:26:33.704Z,2.10
2023-03-10T18:29:01.821Z,1.47
2023-03-10T18:31:33.205Z,1.60
2023-03-10T18:34:01.830Z,2.07
2023-03-10T18:36:30.149Z,2.10
2023-03-10T18:38:57.881Z,2.70
2023-03-10T18:41:30.569Z,2.10
2023-03-10T18:43:57.896Z,1.70
2023-03-10T18:46:24.933Z,2.20
2023-03-10T18:49:00.832Z,2.73
2023-03-10T18:51:28.735Z,2.23
2023-03-10T18:53:56.433Z,1.50
2023-03-10T18:56:25.589Z,2.00
2023-03-10T18:58:52.537Z,1.90
2023-03-10T19:01:19.526Z,1.80
2023-03-10T19:03:46.406Z,2.50
2023-03-10T19:06:13.274Z,1.50
2023-03-10T19:08:41.351Z,2.10
2023-03-10T19:11:08.476Z,2.00
2023-03-10T19:13:40.251Z,1.80
2023-03-10T19:16:10.294Z,1.90
2023-03-10T19:18:37.820Z,1.67
2023-03-10T19:21:06.001Z,1.60
2023-03-10T19:23:34.773Z,1.90
2023-03-10T19:26:03.701Z,1.80
2023-03-10T19:28:31.308Z,1.43
2023-03-10T19:30:58.506Z,1.70
2023-03-10T19:33:25.410Z,2.00
2023-03-10T19:36:02.846Z,1.83
2023-03-10T19:38:30.042Z,1.90
2023-03-10T19:40:57.361Z,1.50
2023-03-10T19:43:24.258Z,1.53
2023-03-10T19:45:51.113Z,1.70
2023-03-10T19:48:18.069Z,1.60
2023-03-10T19:50:44.932Z,1.67
2023-03-10T19:53:11.798Z,2.23
2023-03-10T19:55:38.914Z,1.80
2023-03-10T19:58:05.782Z,2.27
2023-03-10T20:00:35.907Z,3.17
2023-03-10T20:03:03.053Z,1.73
2023-03-10T20:05:30.101Z,2.90
2023-03-10T20:07:57.038Z,3.50
2023-03-10T20:10:24.158Z,2.23
2023-03-10T20:12:51.417Z,2.17
2023-03-10T20:15:18.766Z,2.73
2023-03-10T20:17:45.900Z,2.40
2023-03-10T20:20:15.101Z,4.10
2023-03-10T20:22:47.709Z,2.40
2023-03-10T20:25:21.473Z,7.90
2023-03-10T20:27:52.362Z,2.73
2023-03-10T20:30:29.317Z,3.53
2023-03-10T20:32:59.786Z,1.87
2023-03-10T20:35:30.673Z,3.60
2023-03-10T20:37:58.805Z,3.20
2023-03-10T20:40:26.761Z,3.47
2023-03-10T20:42:59.587Z,7.50
2023-03-10T20:45:27.729Z,9.97
2023-03-10T20:47:54.725Z,2.50
2023-03-10T20:50:22.120Z,3.17
2023-03-10T20:52:50.001Z,2.00
2023-03-10T20:55:27.994Z,2.30
2023-03-10T20:57:59.295Z,2.37
2023-03-10T21:00:30.163Z,1.97
2023-03-10T21:02:58.787Z,1.77
2023-03-10T21:05:28.099Z,2.47
2023-03-10T21:07:56.090Z,2.43
2023-03-10T21:10:25.790Z,1.97
2023-03-10T21:12:52.724Z,2.20
2023-03-10T21:15:20.328Z,2.17
2023-03-10T21:17:47.795Z,2.43
2023-03-10T21:20:22.934Z,2.30
2023-03-10T21:22:50.809Z,2.00
2023-03-10T21:25:25.549Z,1.60
2023-03-10T21:27:58.753Z,1.40
2023-03-10T21:30:30.199Z,1.27
2023-03-10T21:32:58.551Z,1.43
2023-03-10T21:35:33.940Z,1.25
2023-03-10T21:38:00.940Z,2.10
2023-03-10T21:40:28.745Z,1.80
2023-03-10T21:42:55.635Z,1.80
2023-03-10T21:45:26.170Z,1.63
2023-03-10T21:47:53.122Z,1.40
2023-03-10T21:50:20.877Z,2.13
2023-03-10T21:52:48.116Z,1.90
2023-03-10T21:55:25.012Z,1.95
2023-03-10T21:57:52.600Z,2.03
2023-03-10T22:00:23.162Z,1.50
2023-03-10T22:02:52.584Z,1.60
2023-03-10T22:05:21.521Z,2.00
2023-03-10T22:07:48.705Z,1.50
2023-03-10T22:10:18.107Z,2.30
2023-03-10T22:12:45.615Z,1.55
2023-03-10T22:15:22.295Z,1.73
2023-03-10T22:17:50.255Z,1.70
2023-03-10T22:20:25.141Z,1.98
2023-03-10T22:22:52.557Z,1.75
2023-03-10T22:25:20.867Z,1.50
2023-03-10T22:27:55.355Z,1.58
2023-03-10T22:30:26.053Z,1.63
2023-03-10T22:32:54.174Z,1.73
2023-03-10T22:35:22.149Z,1.92
2023-03-10T22:37:51.296Z,1.73
2023-03-10T22:40:23.002Z,1.98
2023-03-10T22:42:49.954Z,1.42
2023-03-10T22:45:29.209Z,1.65
2023-03-10T22:48:02.114Z,1.30
2023-03-10T22:50:39.678Z,1.38
2023-03-10T22:53:14.956Z,1.90
2023-03-10T22:55:43.481Z,1.50
2023-03-10T22:58:11.070Z,1.33
2023-03-10T23:00:40.244Z,1.90
2023-03-10T23:03:08.873Z,1.10
2023-03-10T23:05:36.150Z,1.00
2023-03-10T23:08:04.928Z,1.38
2023-03-10T23:10:35.605Z,1.52
2023-03-10T23:13:08.606Z,1.52
2023-03-10T23:15:38.683Z,1.40
2023-03-10T23:18:07.238Z,1.30
2023-03-10T23:20:41.568Z,1.40
2023-03-10T23:23:14.548Z,1.40
2023-03-10T23:25:47.367Z,1.55
2023-03-10T23:28:16.498Z,1.67
2023-03-10T23:30:47.490Z,1.27
2023-03-10T23:33:20.041Z,1.17
2023-03-10T23:35:53.440Z,0.95
2023-03-10T23:38:24.189Z,1.35
2023-03-10T23:40:53.020Z,1.45
2023-03-10T23:43:20.106Z,1.42
2023-03-10T23:45:47.116Z,1.38
2023-03-10T23:48:18.317Z,1.15
2023-03-10T23:50:47.994Z,1.10
2023-03-10T23:53:19.649Z,1.15
2023-03-10T23:55:48.203Z,1.30
2023-03-10T23:58:19.455Z,0.85
